createdAt,value
2019-03-29T00:00:28.942Z,102858.49
2019-03-29T00:02:59.301Z,102858.82
2019-03-29T00:05:29.797Z,102855.22
2019-03-29T00:08:00.204Z,102856.66
2019-03-29T00:10:30.487Z,102855.23
2019-03-29T00:13:01.026Z,102851.59
2019-03-29T00:15:31.386Z,102849.05
2019-03-29T00:18:01.863Z,102854.02
2019-03-29T00:20:32.168Z,102844.78
2019-03-29T00:23:02.694Z,102844.25
2019-03-29T00:25:33.127Z,102840.98
2019-03-29T00:28:03.937Z,102839.35
2019-03-29T00:30:34.389Z,102839.70
2019-03-29T00:33:04.845Z,102835.20
2019-03-29T00:35:35.491Z,102835.39
2019-03-29T00:38:05.998Z,102823.31
2019-03-29T00:40:40.723Z,102821.53
2019-03-29T00:43:11.122Z,102822.23
2019-03-29T00:45:42.022Z,102820.80
2019-03-29T00:48:12.495Z,102814.34
2019-03-29T00:50:42.793Z,102813.08
2019-03-29T00:53:13.160Z,102810.38
2019-03-29T00:58:25.909Z,102807.87
2019-03-29T01:00:56.196Z,102803.39
2019-03-29T01:03:26.557Z,102800.30
2019-03-29T01:05:57.027Z,102795.07
2019-03-29T01:08:27.463Z,102804.62
2019-03-29T01:10:57.997Z,102804.80
2019-03-29T01:13:28.373Z,102803.37
2019-03-29T01:15:58.945Z,102801.91
2019-03-29T01:18:29.435Z,102798.33
2019-03-29T01:20:59.753Z,102801.38
2019-03-29T01:23:30.050Z,102802.30
2019-03-29T01:26:01.159Z,102799.77
2019-03-29T01:28:31.721Z,102798.33
2019-03-29T01:31:02.039Z,102797.59
2019-03-29T01:33:32.398Z,102795.26
2019-03-29T01:36:02.805Z,102795.44
2019-03-29T01:38:33.121Z,102792.75
2019-03-29T01:41:03.443Z,102792.06
2019-03-29T01:43:33.851Z,102790.76
2019-03-29T01:46:04.485Z,102793.63
2019-03-29T01:48:35.397Z,102787.16
2019-03-29T01:51:05.972Z,102794.18
2019-03-29T01:53:36.400Z,102788.95
2019-03-29T01:56:06.680Z,102788.23
2019-03-29T01:58:37.072Z,102776.65
2019-03-29T02:01:07.499Z,102781.67
2019-03-29T02:03:37.775Z,102785.80
2019-03-29T02:06:08.081Z,102782.94
2019-03-29T02:08:38.358Z,102786.55
2019-03-29T02:11:08.838Z,102779.52
2019-03-29T02:13:39.238Z,102782.05
2019-03-29T02:16:09.657Z,102781.16
2019-03-29T02:18:40.171Z,102774.30
2019-03-29T02:21:10.492Z,102776.30
2019-03-29T02:23:40.897Z,102769.06
2019-03-29T02:26:11.291Z,102771.75
2019-03-29T02:28:42.232Z,102765.95
2019-03-29T02:31:12.924Z,102763.11
2019-03-29T02:33:43.244Z,102763.44
2019-03-29T02:36:13.599Z,102757.50
2019-03-29T02:38:54.824Z,102756.77
2019-03-29T02:41:16.041Z,102757.70
2019-03-29T02:43:46.453Z,102753.00
2019-03-29T02:46:16.987Z,102752.47
2019-03-29T02:48:47.532Z,102757.68
2019-03-29T02:51:17.905Z,102751.89
2019-03-29T02:53:48.854Z,102753.89
2019-03-29T02:56:19.150Z,102754.28
2019-03-29T02:58:49.564Z,102755.56
2019-03-29T03:01:19.976Z,102749.09
2019-03-29T03:03:50.464Z,102714.95
2019-03-29T03:06:20.929Z,102744.80
2019-03-29T03:08:51.398Z,102749.67
2019-03-29T03:11:21.737Z,102753.30
2019-03-29T03:13:52.192Z,102758.36
2019-03-29T03:16:22.876Z,102752.56
2019-03-29T03:18:53.280Z,102750.50
2019-03-29T03:21:23.696Z,102744.51
2019-03-29T03:23:54.166Z,102746.86
2019-03-29T03:26:24.707Z,102744.67
2019-03-29T03:28:55.133Z,102736.92
2019-03-29T03:31:25.675Z,102728.22
2019-03-29T03:33:56.028Z,102735.60
2019-03-29T03:36:26.400Z,102729.97
2019-03-29T03:38:56.872Z,102728.13
2019-03-29T03:41:27.560Z,102723.30
2019-03-29T03:43:57.954Z,102725.61
2019-03-29T03:46:28.506Z,102725.37
2019-03-29T03:48:58.891Z,102727.28
2019-03-29T03:51:29.851Z,102729.45
2019-03-29T03:54:00.322Z,102727.31
2019-03-29T03:56:31.234Z,102727.84
2019-03-29T03:59:02.261Z,102739.35
2019-03-29T04:01:32.743Z,102728.73
2019-03-29T04:04:03.727Z,102733.98
2019-03-29T04:06:34.049Z,102728.06
2019-03-29T04:09:05.317Z,102729.32
2019-03-29T04:11:35.916Z,102738.11
2019-03-29T04:14:06.420Z,102728.89
2019-03-29T04:16:36.878Z,102730.28
2019-03-29T04:19:07.602Z,102721.45
2019-03-29T04:21:37.885Z,102719.78
2019-03-29T04:24:08.206Z,102720.80
2019-03-29T04:26:38.692Z,102716.97
2019-03-29T04:29:09.202Z,102719.17
2019-03-29T04:31:39.588Z,102715.69
2019-03-29T04:34:10.164Z,102717.64
2019-03-29T04:36:41.762Z,102723.33
2019-03-29T04:39:12.460Z,102725.59
2019-03-29T04:41:42.855Z,102724.23
2019-03-29T04:44:13.225Z,102728.09
2019-03-29T04:46:43.686Z,102732.14
2019-03-29T04:49:14.372Z,102733.62
2019-03-29T04:51:44.766Z,102727.27
2019-03-29T04:54:15.518Z,102733.55
2019-03-29T04:56:45.908Z,102726.34
2019-03-29T04:59:16.432Z,102727.27
2019-03-29T05:01:47.131Z,102728.09
2019-03-29T05:04:17.935Z,102727.38
2019-03-29T05:06:48.290Z,102729.13
2019-03-29T05:09:18.723Z,102728.02
2019-03-29T05:11:49.127Z,102729.28
2019-03-29T05:14:19.857Z,102728.74
2019-03-29T05:16:50.245Z,102725.66
2019-03-29T05:19:21.288Z,102720.78
2019-03-29T05:21:51.927Z,102729.92
2019-03-29T05:24:22.201Z,102728.28
2019-03-29T05:26:52.515Z,102721.70
2019-03-29T05:29:22.854Z,102722.61
2019-03-29T05:31:53.813Z,102720.09
2019-03-29T05:34:24.249Z,102724.97
2019-03-29T05:36:58.209Z,102728.94
2019-03-29T05:39:28.240Z,102726.27
2019-03-29T05:41:58.553Z,102724.28
2019-03-29T05:44:29.796Z,102726.69
2019-03-29T05:47:00.182Z,102733.09
2019-03-29T05:49:30.637Z,102730.61
2019-03-29T05:52:00.996Z,102729.28
2019-03-29T05:54:31.461Z,102724.94
2019-03-29T05:57:02.325Z,102726.00
2019-03-29T05:59:33.173Z,102732.81
2019-03-29T06:02:03.576Z,102723.30
2019-03-29T06:04:34.180Z,102718.77
2019-03-29T06:07:04.516Z,102714.55
2019-03-29T06:09:35.205Z,102718.28
2019-03-29T06:12:05.750Z,102722.89
2019-03-29T06:14:36.172Z,102719.38
2019-03-29T06:17:07.888Z,102714.95
2019-03-29T06:19:39.020Z,102717.17
2019-03-29T06:22:09.651Z,102719.13
2019-03-29T06:24:40.336Z,102720.23
2019-03-29T06:27:11.693Z,102691.72
2019-03-29T06:29:42.085Z,102717.72
2019-03-29T06:32:12.732Z,102715.13
2019-03-29T06:34:43.226Z,102713.47
2019-03-29T06:37:17.764Z,102719.40
2019-03-29T06:39:50.336Z,102725.86
2019-03-29T06:42:20.733Z,102716.88
2019-03-29T06:44:51.049Z,102717.09
2019-03-29T06:47:21.680Z,102716.77
2019-03-29T06:49:52.149Z,102721.88
2019-03-29T06:52:22.652Z,102726.05
2019-03-29T06:54:52.997Z,102717.25
2019-03-29T06:57:23.668Z,102676.93
2019-03-29T06:59:54.460Z,102721.96
2019-03-29T07:02:25.164Z,102720.55
2019-03-29T07:04:55.920Z,102716.95
2019-03-29T07:07:26.209Z,102716.09
2019-03-29T07:09:56.615Z,102717.53
2019-03-29T07:12:26.973Z,102714.86
2019-03-29T07:14:57.425Z,102712.94
2019-03-29T07:17:27.848Z,102711.52
2019-03-29T07:19:58.451Z,102713.91
2019-03-29T07:22:30.399Z,102711.57
2019-03-29T07:25:00.747Z,102711.05
2019-03-29T07:27:43.895Z,102711.97
2019-03-29T07:30:04.907Z,102708.91
2019-03-29T07:32:35.334Z,102709.83
2019-03-29T07:35:06.851Z,102710.22
2019-03-29T07:37:38.128Z,102712.03
2019-03-29T07:40:09.059Z,102708.30
2019-03-29T07:42:39.490Z,102701.98
2019-03-29T07:45:10.682Z,102704.17
2019-03-29T07:47:41.189Z,102701.09
2019-03-29T07:50:11.538Z,102703.10
2019-03-29T07:52:41.987Z,102700.75
2019-03-29T07:55:12.497Z,102703.10
2019-03-29T07:57:42.947Z,102696.62
2019-03-29T08:00:14.062Z,102704.25
2019-03-29T08:02:44.646Z,102700.99
2019-03-29T08:05:15.136Z,102699.73
2019-03-29T08:07:45.599Z,102700.30
2019-03-29T08:10:25.766Z,102697.59
2019-03-29T08:12:49.161Z,102693.64
2019-03-29T08:15:20.140Z,102692.38
2019-03-29T08:17:51.523Z,102694.19
2019-03-29T08:20:39.208Z,102698.89
2019-03-29T08:22:53.977Z,102689.88
2019-03-29T08:25:24.877Z,102685.37
2019-03-29T08:27:55.228Z,102677.42
2019-03-29T08:30:25.625Z,102671.48
2019-03-29T08:32:56.019Z,102674.72
2019-03-29T08:35:26.943Z,102675.98
2019-03-29T08:37:57.244Z,102677.41
2019-03-29T08:40:27.679Z,102670.73
2019-03-29T08:42:58.042Z,102671.63
2019-03-29T08:45:28.501Z,102672.34
2019-03-29T08:47:58.954Z,102671.80
2019-03-29T08:50:29.530Z,102662.06
2019-03-29T08:53:00.215Z,102671.59
2019-03-29T08:55:44.752Z,102667.07
2019-03-29T08:58:02.742Z,102672.66
2019-03-29T09:00:34.013Z,102668.27
2019-03-29T09:03:05.772Z,102664.98
2019-03-29T09:05:39.177Z,102665.28
2019-03-29T09:08:08.980Z,102666.35
2019-03-29T09:10:39.356Z,102659.23
2019-03-29T09:13:09.744Z,102655.83
2019-03-29T09:15:40.450Z,102654.94
2019-03-29T09:18:10.855Z,102659.25
2019-03-29T09:20:42.071Z,102659.28
2019-03-29T09:23:12.450Z,102649.28
2019-03-29T09:25:43.129Z,102638.50
2019-03-29T09:28:13.522Z,102639.00
2019-03-29T09:30:44.255Z,102638.05
2019-03-29T09:33:14.902Z,102637.12
2019-03-29T09:35:45.226Z,102639.27
2019-03-29T09:38:15.607Z,102643.16
2019-03-29T09:40:56.192Z,102640.27
2019-03-29T09:43:18.076Z,102629.38
2019-03-29T09:45:48.338Z,102635.61
2019-03-29T09:48:19.600Z,102629.16
2019-03-29T09:50:50.896Z,102631.89
2019-03-29T09:53:21.573Z,102627.68
2019-03-29T09:55:53.529Z,102622.60
2019-03-29T09:58:24.362Z,102629.98
2019-03-29T10:00:55.196Z,102619.02
2019-03-29T10:03:25.622Z,102625.32
2019-03-29T10:05:56.055Z,102613.91
2019-03-29T10:08:26.788Z,102611.72
2019-03-29T10:10:57.076Z,102612.25
2019-03-29T10:13:27.442Z,102604.29
2019-03-29T10:15:58.252Z,102599.73
2019-03-29T10:18:28.538Z,102601.66
2019-03-29T10:20:58.865Z,102598.03
2019-03-29T10:23:29.544Z,102594.65
2019-03-29T10:25:59.895Z,102592.59
2019-03-29T10:28:30.272Z,102586.70
2019-03-29T10:31:00.573Z,102583.34
2019-03-29T10:33:30.974Z,102577.33
2019-03-29T10:36:01.394Z,102577.59
2019-03-29T10:38:31.926Z,102573.91
2019-03-29T10:41:02.784Z,102562.39
2019-03-29T10:43:33.374Z,102563.88
2019-03-29T10:46:03.958Z,102559.95
2019-03-29T10:48:34.370Z,102565.03
2019-03-29T10:51:08.167Z,102556.91
2019-03-29T10:53:36.748Z,102550.06
2019-03-29T10:56:07.054Z,102543.99
2019-03-29T10:58:37.912Z,102545.02
2019-03-29T11:01:08.276Z,102539.08
2019-03-29T11:03:38.595Z,102533.15
2019-03-29T11:06:08.919Z,102532.72
2019-03-29T11:08:39.658Z,102522.48
2019-03-29T11:11:10.689Z,102489.89
2019-03-29T11:13:41.434Z,102528.44
2019-03-29T11:16:11.969Z,102525.17
2019-03-29T11:18:45.675Z,102520.52
2019-03-29T11:21:14.606Z,102514.38
2019-03-29T11:23:45.108Z,102514.87
2019-03-29T11:26:15.519Z,102504.85
2019-03-29T11:28:45.916Z,102503.39
2019-03-29T11:31:16.848Z,102508.77
2019-03-29T11:33:47.175Z,102501.66
2019-03-29T11:36:17.634Z,102503.76
2019-03-29T11:38:48.167Z,102492.31
2019-03-29T11:41:18.541Z,102494.78
2019-03-29T11:43:48.879Z,102486.13
2019-03-29T11:46:19.558Z,102480.23
2019-03-29T11:48:50.028Z,102475.80
2019-03-29T11:51:20.475Z,102473.79
2019-03-29T11:53:51.415Z,102459.12
2019-03-29T11:56:22.106Z,102456.20
2019-03-29T11:58:52.796Z,102457.54
2019-03-29T12:01:23.865Z,102454.09
2019-03-29T12:03:54.630Z,102452.77
2019-03-29T12:06:24.969Z,102457.91
2019-03-29T12:08:57.205Z,102458.92
2019-03-29T12:11:28.175Z,102453.30
2019-03-29T12:13:58.643Z,102442.38
2019-03-29T12:16:29.249Z,102440.45
2019-03-29T12:18:59.802Z,102433.50
2019-03-29T12:21:30.593Z,102436.19
2019-03-29T12:24:01.297Z,102435.50
2019-03-29T12:26:31.984Z,102434.31
2019-03-29T12:29:02.479Z,102429.42
2019-03-29T12:31:32.872Z,102430.33
2019-03-29T12:34:03.473Z,102423.81
2019-03-29T12:36:33.967Z,102417.27
2019-03-29T12:39:05.477Z,102415.08
2019-03-29T12:41:36.636Z,102413.66
2019-03-29T12:44:07.179Z,102408.48
2019-03-29T12:46:37.614Z,102407.45
2019-03-29T12:49:08.706Z,102400.36
2019-03-29T12:51:39.101Z,102398.38
2019-03-29T12:54:12.121Z,102394.09
2019-03-29T12:56:42.473Z,102396.73
2019-03-29T12:59:13.218Z,102384.66
2019-03-29T13:01:44.092Z,102386.63
2019-03-29T13:04:14.402Z,102385.73
2019-03-29T13:06:45.153Z,102383.25
2019-03-29T13:09:15.535Z,102377.92
2019-03-29T13:11:45.924Z,102244.54
2019-03-29T13:14:16.560Z,102378.23
2019-03-29T13:16:47.463Z,102368.20
2019-03-29T13:19:17.864Z,102370.83
2019-03-29T13:21:48.690Z,102355.45
2019-03-29T13:24:19.644Z,102359.61
2019-03-29T13:26:50.143Z,102348.66
2019-03-29T13:29:21.043Z,102345.64
2019-03-29T13:31:51.417Z,102336.45
2019-03-29T13:34:22.585Z,102336.39
2019-03-29T13:36:52.988Z,102330.92
2019-03-29T13:39:23.555Z,102327.34
2019-03-29T13:41:54.022Z,102330.39
2019-03-29T13:44:26.775Z,102288.39
2019-03-29T13:46:56.384Z,102312.95
2019-03-29T13:49:26.998Z,102320.20
2019-03-29T13:51:57.973Z,102308.83
2019-03-29T13:54:28.372Z,102307.56
2019-03-29T13:56:58.782Z,102302.47
2019-03-29T13:59:31.818Z,102302.53
2019-03-29T14:02:02.102Z,102287.94
2019-03-29T14:04:32.738Z,102286.59
2019-03-29T14:07:03.221Z,102290.31
2019-03-29T14:09:34.079Z,102284.28
2019-03-29T14:12:04.509Z,102279.98
2019-03-29T14:14:38.344Z,102281.95
2019-03-29T14:17:07.391Z,102275.64
2019-03-29T14:19:37.703Z,102270.72
2019-03-29T14:22:08.164Z,102270.09
2019-03-29T14:24:38.988Z,102260.92
2019-03-29T14:27:10.256Z,102263.50
2019-03-29T14:29:40.910Z,102270.16
2019-03-29T14:32:11.659Z,102261.58
2019-03-29T14:34:42.449Z,102224.29
2019-03-29T14:37:13.186Z,102259.38
2019-03-29T14:39:44.206Z,102252.38
2019-03-29T14:42:14.856Z,102250.12
2019-03-29T14:44:52.349Z,102246.19
2019-03-29T14:47:18.693Z,102252.31
2019-03-29T14:49:49.034Z,102249.29
2019-03-29T14:52:19.679Z,102242.31
2019-03-29T14:54:50.566Z,102238.75
2019-03-29T14:57:21.029Z,102232.12
2019-03-29T14:59:52.032Z,102236.18
2019-03-29T15:02:22.951Z,102233.41
2019-03-29T15:04:54.602Z,102239.19
2019-03-29T15:07:25.137Z,102236.70
2019-03-29T15:09:56.005Z,102234.03
2019-03-29T15:12:26.786Z,102228.40
2019-03-29T15:15:05.905Z,102209.48
2019-03-29T15:17:29.668Z,102213.08
2019-03-29T15:20:00.143Z,102213.57
2019-03-29T15:22:33.103Z,102207.48
2019-03-29T15:25:03.774Z,102206.70
2019-03-29T15:27:34.051Z,102204.88
2019-03-29T15:30:05.119Z,102202.03
2019-03-29T15:32:36.974Z,102196.41
2019-03-29T15:35:08.636Z,102194.34
2019-03-29T15:37:39.192Z,102179.49
2019-03-29T15:40:10.575Z,102192.66
2019-03-29T15:42:43.525Z,102188.47
2019-03-29T15:45:20.592Z,102184.67
2019-03-29T15:47:47.850Z,102183.39
2019-03-29T15:50:18.185Z,102181.44
2019-03-29T15:52:49.942Z,102173.84
2019-03-29T15:55:20.601Z,102167.92
2019-03-29T15:57:51.028Z,102139.07
2019-03-29T16:00:22.457Z,102167.77
2019-03-29T16:02:53.333Z,102164.31
2019-03-29T16:05:24.061Z,102164.68
2019-03-29T16:07:54.785Z,102162.98
2019-03-29T16:10:25.793Z,102158.19
2019-03-29T16:12:56.184Z,102159.20
2019-03-29T16:15:34.818Z,102156.75
2019-03-29T16:17:59.154Z,102148.45
2019-03-29T16:20:29.697Z,102154.02
2019-03-29T16:23:00.123Z,102141.73
2019-03-29T16:25:30.449Z,102143.70
2019-03-29T16:28:01.216Z,102147.45
2019-03-29T16:30:31.610Z,102135.89
2019-03-29T16:33:02.000Z,102139.27
2019-03-29T16:35:32.325Z,102137.95
2019-03-29T16:38:02.931Z,102125.03
2019-03-29T16:40:33.996Z,102122.95
2019-03-29T16:43:04.416Z,102123.95
2019-03-29T16:45:47.921Z,102131.13
2019-03-29T16:48:10.850Z,102120.64
2019-03-29T16:50:41.644Z,102124.38
2019-03-29T16:53:12.319Z,102122.75
2019-03-29T16:55:42.902Z,102118.86
2019-03-29T16:58:13.673Z,102116.86
2019-03-29T17:00:44.221Z,102117.41
2019-03-29T17:03:14.750Z,102114.50
2019-03-29T17:05:45.154Z,102119.90
2019-03-29T17:08:16.083Z,102117.30
2019-03-29T17:10:46.664Z,102116.48
2019-03-29T17:13:16.976Z,102112.48
2019-03-29T17:16:00.795Z,102111.48
2019-03-29T17:18:29.232Z,102107.25
2019-03-29T17:20:52.843Z,102109.88
2019-03-29T17:23:23.441Z,102104.70
2019-03-29T17:25:54.354Z,102102.83
2019-03-29T17:28:24.673Z,102109.70
2019-03-29T17:30:57.962Z,102094.25
2019-03-29T17:33:29.151Z,102104.41
2019-03-29T17:36:00.103Z,102105.89
2019-03-29T17:38:30.645Z,102106.73
2019-03-29T17:41:01.414Z,102107.14
2019-03-29T17:43:31.699Z,102103.84
2019-03-29T17:46:15.465Z,102108.52
2019-03-29T17:48:34.231Z,102107.33
2019-03-29T17:51:04.745Z,102106.56
2019-03-29T17:53:35.610Z,102105.48
2019-03-29T17:56:06.128Z,102109.11
2019-03-29T17:58:36.617Z,102105.77
2019-03-29T18:01:07.478Z,102112.33
2019-03-29T18:03:37.894Z,102111.71
2019-03-29T18:06:08.379Z,102112.36
2019-03-29T18:08:38.863Z,102111.67
2019-03-29T18:11:09.369Z,102109.62
2019-03-29T18:13:39.927Z,102106.62
2019-03-29T18:16:10.459Z,102116.39
2019-03-29T18:18:41.747Z,102115.28
2019-03-29T18:21:12.144Z,102117.45
2019-03-29T18:23:44.996Z,102126.17
2019-03-29T18:26:15.989Z,102123.31
2019-03-29T18:28:46.282Z,102121.05
2019-03-29T18:31:17.175Z,102118.44
2019-03-29T18:33:48.228Z,102121.61
2019-03-29T18:36:18.633Z,102120.55
2019-03-29T18:38:49.330Z,102122.94
2019-03-29T18:41:19.753Z,102118.66
2019-03-29T18:43:50.087Z,102117.45
2019-03-29T18:46:20.506Z,102111.03
2019-03-29T18:48:50.955Z,102112.98
2019-03-29T18:51:21.924Z,102115.80
2019-03-29T18:53:52.955Z,102114.91
2019-03-29T18:56:23.734Z,102106.47
2019-03-29T18:58:54.302Z,102116.59
2019-03-29T19:01:24.770Z,102117.38
2019-03-29T19:03:55.461Z,102115.59
2019-03-29T19:06:26.010Z,102117.22
2019-03-29T19:08:56.500Z,102114.75
2019-03-29T19:11:28.110Z,102116.28
2019-03-29T19:13:58.509Z,102115.13
2019-03-29T19:16:28.936Z,102118.27
2019-03-29T19:19:09.415Z,102112.56
2019-03-29T19:21:31.632Z,102111.20
2019-03-29T19:24:02.830Z,102111.22
2019-03-29T19:26:33.446Z,102110.37
2019-03-29T19:29:03.952Z,102108.48
2019-03-29T19:31:34.263Z,102111.47
2019-03-29T19:34:05.033Z,102111.38
2019-03-29T19:36:35.738Z,102113.26
2019-03-29T19:39:07.406Z,102112.79
2019-03-29T19:41:37.870Z,102111.97
2019-03-29T19:44:08.325Z,102111.16
2019-03-29T19:46:38.787Z,102102.16
2019-03-29T19:49:09.346Z,102104.89
2019-03-29T19:51:39.734Z,102100.23
2019-03-29T19:54:11.539Z,102101.73
2019-03-29T19:56:41.855Z,102100.98
2019-03-29T19:59:12.357Z,102098.97
2019-03-29T20:01:42.745Z,102094.66
2019-03-29T20:04:13.255Z,102096.08
2019-03-29T20:06:43.717Z,102100.98
2019-03-29T20:09:14.517Z,102100.27
2019-03-29T20:11:45.075Z,102095.81
2019-03-29T20:14:15.478Z,102094.80
2019-03-29T20:16:45.851Z,102095.20
2019-03-29T20:19:19.949Z,102093.07
2019-03-29T20:21:48.861Z,102091.17
2019-03-29T20:24:19.434Z,102093.19
2019-03-29T20:26:49.850Z,102098.24
2019-03-29T20:29:20.349Z,102094.30
2019-03-29T20:31:50.939Z,102092.13
2019-03-29T20:34:22.067Z,102096.27
2019-03-29T20:36:52.480Z,102090.19
2019-03-29T20:39:23.011Z,102081.94
2019-03-29T20:41:53.282Z,102081.97
2019-03-29T20:44:24.046Z,102087.06
2019-03-29T20:46:55.368Z,102080.63
2019-03-29T20:49:25.699Z,102079.00
2019-03-29T20:51:56.000Z,102079.20
2019-03-29T20:54:26.398Z,102082.31
2019-03-29T20:56:57.027Z,102079.62
2019-03-29T20:59:27.349Z,102085.42
2019-03-29T21:01:57.797Z,102082.93
2019-03-29T21:04:28.642Z,102081.50
2019-03-29T21:06:59.452Z,102076.97
2019-03-29T21:09:29.998Z,102085.80
2019-03-29T21:12:00.441Z,102083.83
2019-03-29T21:14:30.855Z,102088.20
2019-03-29T21:17:01.260Z,102086.03
2019-03-29T21:19:31.789Z,102080.83
2019-03-29T21:22:02.112Z,102080.11
2019-03-29T21:24:32.536Z,102077.27
2019-03-29T21:27:02.979Z,102078.55
2019-03-29T21:29:33.358Z,102070.10
2019-03-29T21:32:03.995Z,102076.98
2019-03-29T21:34:34.326Z,102071.03
2019-03-29T21:37:04.682Z,102076.98
2019-03-29T21:39:35.022Z,102075.76
2019-03-29T21:42:05.415Z,102074.30
2019-03-29T21:44:35.831Z,102066.95
2019-03-29T21:47:06.364Z,102071.80
2019-03-29T21:49:36.725Z,102031.59
2019-03-29T21:52:07.153Z,102063.02
2019-03-29T21:54:37.545Z,102063.41
2019-03-29T21:57:07.865Z,102060.00
2019-03-29T21:59:38.249Z,102057.88
2019-03-29T22:02:08.746Z,102059.81
2019-03-29T22:04:39.745Z,102052.83
2019-03-29T22:07:10.139Z,102057.67
2019-03-29T22:09:40.547Z,102060.39
2019-03-29T22:12:11.116Z,102057.48
2019-03-29T22:14:41.640Z,102052.81
2019-03-29T22:17:12.157Z,102049.42
2019-03-29T22:19:42.474Z,102051.20
2019-03-29T22:22:13.024Z,102046.89
2019-03-29T22:24:43.341Z,102051.80
2019-03-29T22:27:13.743Z,102051.28
2019-03-29T22:29:44.124Z,102050.73
2019-03-29T22:32:14.577Z,102050.73
2019-03-29T22:34:45.079Z,102049.81
2019-03-29T22:37:15.808Z,102048.03
2019-03-29T22:39:46.394Z,102045.89
2019-03-29T22:42:16.756Z,102043.74
2019-03-29T22:44:47.270Z,102040.17
2019-03-29T22:47:17.705Z,102038.74
2019-03-29T22:49:48.354Z,102037.86
2019-03-29T22:52:18.829Z,102033.00
2019-03-29T22:54:49.356Z,101992.80
2019-03-29T22:57:19.693Z,102025.48
2019-03-29T22:59:50.622Z,102030.73
2019-03-29T23:02:21.136Z,102028.02
2019-03-29T23:04:52.254Z,102035.22
2019-03-29T23:07:22.902Z,102025.49
2019-03-29T23:09:53.371Z,102022.29
2019-03-29T23:12:24.278Z,102025.16
2019-03-29T23:14:54.690Z,102027.69
2019-03-29T23:17:25.113Z,102028.77
2019-03-29T23:19:55.597Z,102030.39
2019-03-29T23:22:25.967Z,102029.31
2019-03-29T23:24:56.367Z,102026.46
2019-03-29T23:27:26.721Z,102019.80
2019-03-29T23:29:57.130Z,102013.67
2019-03-29T23:32:27.533Z,102014.77
2019-03-29T23:34:57.888Z,102015.52
2019-03-29T23:37:28.504Z,102007.23
2019-03-29T23:39:59.033Z,102005.98
2019-03-29T23:42:29.595Z,102001.48
2019-03-29T23:44:59.990Z,102000.58
2019-03-29T23:47:30.317Z,101997.38
2019-03-29T23:50:00.655Z,101996.30
2019-03-29T23:52:31.224Z,101997.19
2019-03-29T23:55:03.830Z,101986.59
2019-03-29T23:57:34.112Z,101983.72
